Pamplona, España

3:52 PM CET en Diciembre 22, 2014 (GMT +0100)
INAVARRA8 | Change Station
CLOSE
Current Station
Estación meteorológica personal
Location: Sarriguren, NAVARRA
Altura: 1486 ft
Estaciones meteorológicas cercanas

Alt 1486 ft 42.81 °N, 1.59 °W | Updated 7 minutes ago

Clear
Despejado
51.3 ° F
Sensación térmica 51.3 ° F
N
0.0
Viento Variable Viento desde ONO
Gusts 2.0 mph

Hoy
Alta -- | Baja -- ° F
--% Posibilidad de precipitaciones
Ayer
Alta -- | Baja -- ° F
Precip. -- pul
8:34 AM 5:36 PM
Luna nueva, 0% visible
Presión 30.42 pul
Visibilidad -9999.0 Millas
Nubes
Punto de rocío 42 ° F
Humedad 70%
Precipitaciones 4.46 pul
Espesor de la nieve No disponible.
UV No disponible.
Polen No disponible.
Calidad del aire No disponible.
Flu Activity No disponible.
METAR LEPP 221430Z VRB02KT CAVOK 10/05 Q1030

More Conditions Fewer Conditions

Presión 30.42 pul
Visibilidad -9999.0 Millas
Nubes
Punto de rocío 42 ° F
Humedad 70%
Precipitaciones 4.46 pul
Espesor de la nieve No disponible.
UV No disponible.
Polen No disponible.
Calidad del aire No disponible.
Flu Activity No disponible.
METAR LEPP 221430Z VRB02KT CAVOK 10/05 Q1030

More Conditions Fewer Conditions

10-Day Weather Forecast

Almanac

Astronomía

Dec. 22, 2014 Salida Puesta
Hora real
Crepúsculo civil
Crepúsculo náutico
Crepúsculo astronómico
Luna
Horas de luz
Horas de luz
Tomorrow will be .
, % of the Moon is Illuminated

Extremos de hoy

Máximos del país Bajas del país

Community

WunderPhotos

Upload Photos

1,779,608 ¡fotos cargadas!

WunderBlogs® & News

Nearby

Calidad del aire

  Calidad del aire Índice AQ Contaminante
Not available.

Grosos de nieve

Estación Profundido Altura

Actividad de terremotos

Ciudad Distance Mag. Tiempo y dato
Magnitud mínima muestra es 2,5.

Temperaturas de aguas costeras

Lugar Temperatura

Estaciones meteorológicas cercanas